createdAt,value
2017-10-13T15:08:48.227Z,47.27
2017-10-13T16:01:38.174Z,63.51
2017-10-13T16:04:05.192Z,65.59
2017-10-13T16:06:32.231Z,67.06
2017-10-13T16:08:59.596Z,68.31
2017-10-13T16:11:26.622Z,69.31
2017-10-13T16:13:53.619Z,70.60
2017-10-13T16:16:20.653Z,70.92
2017-10-13T16:18:47.736Z,71.53
2017-10-13T16:21:14.700Z,71.17
2017-10-13T16:23:41.900Z,71.44
2017-10-13T16:26:08.879Z,71.86
2017-10-13T16:28:35.906Z,72.51
2017-10-13T16:31:02.957Z,73.11
2017-10-13T16:33:29.991Z,74.24
2017-10-13T16:35:56.970Z,74.43
2017-10-13T16:38:24.035Z,74.82
2017-10-13T16:40:51.002Z,75.06
2017-10-13T16:43:18.041Z,75.78
2017-10-13T16:45:45.311Z,75.65
2017-10-13T16:48:12.289Z,75.67
2017-10-13T16:50:39.287Z,75.92
2017-10-13T16:53:06.437Z,75.93
2017-10-13T16:55:33.605Z,75.59
2017-10-13T16:58:00.870Z,76.32
2017-10-13T17:00:27.904Z,76.84
2017-10-13T17:02:54.890Z,77.33
2017-10-13T17:05:21.957Z,77.71
2017-10-13T17:07:49.315Z,77.86
2017-10-13T17:10:16.383Z,77.89
2017-10-13T17:51:53.778Z,54.77
2017-10-13T17:54:21.281Z,56.34
2017-10-13T18:34:19.923Z,48.55
2017-10-13T18:36:47.391Z,54.77
2017-10-13T18:39:14.811Z,60.26
2017-10-13T18:41:42.695Z,64.29
2017-10-13T18:44:10.128Z,67.36
2017-10-13T18:46:37.545Z,69.78
2017-10-13T18:49:05.004Z,72.12
2017-10-13T18:51:32.447Z,73.88
2017-10-13T18:53:59.986Z,75.22
2017-10-13T18:56:27.889Z,76.58
2017-10-13T18:58:55.318Z,77.62
2017-10-13T19:01:22.784Z,78.99
2017-10-13T19:03:50.251Z,79.97
2017-10-13T19:06:17.668Z,80.77
2017-10-13T19:08:45.076Z,81.23
2017-10-13T19:11:12.540Z,82.31
2017-10-13T19:13:39.962Z,83.04
2017-10-13T19:16:07.443Z,83.52
2017-10-13T19:18:34.919Z,83.83
2017-10-13T19:21:02.347Z,84.01
2017-10-13T19:23:29.763Z,84.33
2017-10-13T19:25:57.338Z,84.78
2017-10-13T19:28:24.798Z,85.16
2017-10-13T19:30:52.306Z,85.39
2017-10-13T19:33:19.768Z,85.91
2017-10-13T19:35:47.195Z,86.15
2017-10-13T19:38:14.697Z,86.32
2017-10-13T19:40:42.295Z,86.52
2017-10-13T19:43:09.728Z,86.73
2017-10-13T19:45:37.899Z,86.66
2017-10-13T19:48:05.605Z,86.17
2017-10-13T19:50:33.210Z,86.24
2017-10-13T19:53:00.629Z,86.66
2017-10-13T19:55:28.403Z,87.36
2017-10-13T19:57:55.897Z,87.44
2017-10-13T20:00:23.410Z,87.67
2017-10-13T20:02:50.987Z,87.37
2017-10-13T20:05:18.486Z,87.14
2017-10-13T20:07:45.993Z,87.19
2017-10-13T20:10:13.852Z,87.28
2017-10-13T20:12:41.378Z,87.23
2017-10-13T20:15:08.818Z,87.30
2017-10-13T20:17:36.423Z,87.41
2017-10-13T20:20:03.848Z,87.79
2017-10-13T20:22:31.362Z,87.93
2017-10-13T20:24:59.411Z,88.20
2017-10-13T20:27:26.850Z,88.20
2017-10-13T20:29:54.418Z,87.88
2017-10-13T20:32:21.906Z,87.43
2017-10-13T20:34:49.318Z,87.45
2017-10-13T20:37:17.259Z,87.81
2017-10-13T20:39:44.780Z,87.83
2017-10-13T20:42:12.210Z,87.84
2017-10-13T20:44:39.740Z,87.85
2017-10-13T20:47:07.227Z,87.62
2017-10-13T20:49:34.710Z,87.52
2017-10-13T20:52:02.155Z,87.86
2017-10-13T20:54:29.642Z,88.02
2017-10-13T20:56:57.057Z,88.02
2017-10-13T20:59:24.516Z,87.89
2017-10-13T21:01:52.100Z,88.13
2017-10-13T21:04:19.523Z,88.25
2017-10-13T21:06:46.949Z,88.51
2017-10-13T21:09:14.419Z,88.47
2017-10-13T21:11:41.851Z,88.93
2017-10-13T21:14:09.264Z,88.62
2017-10-13T21:16:36.723Z,88.73
2017-10-13T21:19:04.138Z,88.98
2017-10-13T21:21:31.561Z,89.06
2017-10-13T21:23:59.395Z,88.99
2017-10-13T21:26:26.841Z,88.46
2017-10-13T21:28:54.338Z,88.29
2017-10-13T21:31:21.806Z,88.67
2017-10-13T21:33:49.365Z,88.55
2017-10-13T21:36:18.219Z,88.59
2017-10-13T21:38:46.130Z,88.31
2017-10-13T21:41:13.555Z,88.85
2017-10-13T21:43:40.976Z,89.66
2017-10-13T21:46:08.540Z,89.53
2017-10-13T21:48:35.971Z,89.04
2017-10-13T21:51:03.409Z,88.73
2017-10-13T21:53:30.895Z,89.30
2017-10-13T21:55:58.322Z,89.35
2017-10-13T21:58:26.016Z,89.78
2017-10-13T22:00:53.490Z,89.75
2017-10-13T22:03:20.917Z,89.54
2017-10-13T22:05:48.395Z,89.53
2017-10-13T22:08:15.902Z,89.97
2017-10-13T22:10:43.349Z,89.88
2017-10-13T22:13:10.786Z,89.96
2017-10-13T22:15:38.458Z,90.12
2017-10-13T22:18:06.100Z,90.21
2017-10-13T22:20:33.530Z,89.85
2017-10-13T22:23:01.437Z,89.73
2017-10-13T22:25:28.858Z,89.70
2017-10-13T22:27:56.280Z,89.67
2017-10-13T22:30:23.834Z,89.73
2017-10-13T22:32:51.251Z,90.01
2017-10-13T22:35:18.869Z,89.90
2017-10-13T22:37:46.332Z,90.42
2017-10-13T22:40:13.747Z,90.88
2017-10-13T22:42:41.176Z,90.76
2017-10-13T22:45:09.057Z,90.71
2017-10-13T22:47:36.480Z,90.94
2017-10-13T22:50:03.907Z,91.34
2017-10-13T22:52:31.371Z,91.27
2017-10-13T22:54:58.803Z,91.01
2017-10-13T22:57:26.369Z,91.15
2017-10-13T22:59:53.820Z,90.60
2017-10-13T23:02:21.254Z,91.37
2017-10-13T23:04:48.684Z,91.49
2017-10-13T23:07:16.328Z,91.37
2017-10-13T23:09:43.754Z,91.65
2017-10-13T23:12:11.179Z,91.68
2017-10-13T23:14:38.657Z,91.71
2017-10-13T23:17:06.071Z,91.77
2017-10-13T23:19:33.597Z,91.49
2017-10-13T23:22:01.104Z,91.41
2017-10-13T23:24:28.523Z,91.16
2017-10-13T23:26:55.972Z,90.91
2017-10-13T23:29:24.088Z,91.17
2017-10-13T23:31:51.522Z,91.14
2017-10-13T23:34:18.949Z,91.03
2017-10-13T23:36:46.802Z,90.67
2017-10-13T23:39:14.221Z,90.33
2017-10-13T23:41:41.641Z,90.29
2017-10-13T23:44:09.470Z,90.39
2017-10-13T23:46:36.888Z,90.15
2017-10-13T23:49:04.313Z,90.58
2017-10-13T23:51:31.772Z,91.12
2017-10-13T23:53:59.336Z,91.12
2017-10-13T23:56:26.767Z,91.19
2017-10-13T23:58:54.259Z,91.08
